Time,TemperatureF,DewpointF,PressureIn,WindDirection,WindDirectionDegrees,WindSpeedMPH,WindSpeedGustMPH,Humidity,HourlyPrecipIn,Conditions,Clouds,dailyrainin,SolarRadiationWatts/m^2,SoftwareType,DateUTC
2013-02-20 00:11:00,35.0,31.0,-100.00,WNW,292,8.0,13.0,87,-99.99,,,0.00,0.000000,,2013-02-20 07:11:00,
2013-02-20 01:11:00,35.0,31.0,-100.00,NW,306,7.0,11.0,86,-99.99,,,0.00,0.000000,,2013-02-20 08:11:00,
2013-02-20 02:11:00,34.0,31.0,-100.00,WNW,300,8.0,13.0,89,-99.99,,,0.00,0.000000,,2013-02-20 09:11:00,
2013-02-20 03:12:00,35.0,29.0,-100.00,NW,308,13.0,22.0,80,-99.99,,,0.00,0.000000,,2013-02-20 10:12:00,
2013-02-20 04:11:00,34.0,26.0,-100.00,NW,310,16.0,22.0,71,-99.99,,,0.00,0.000000,,2013-02-20 11:11:00,
2013-02-20 05:12:00,33.0,24.0,-100.00,NW,311,18.0,28.0,68,-99.99,,,0.00,0.000000,,2013-02-20 12:12:00,
2013-02-20 06:11:00,32.0,24.0,-100.00,NW,313,15.0,22.0,71,-99.99,,,0.00,0.000000,,2013-02-20 13:11:00,
2013-02-20 07:11:00,32.0,22.0,-100.00,NW,307,16.0,28.0,67,-99.99,,,0.00,0.000000,,2013-02-20 14:11:00,
2013-02-20 08:11:00,32.0,20.0,-100.00,WNW,302,15.0,21.0,61,-99.99,,,0.00,0.000000,,2013-02-20 15:11:00,
2013-02-20 09:11:00,32.0,19.0,-100.00,NW,310,15.0,21.0,59,-99.99,,,0.00,64.730003,,2013-02-20 16:11:00,
2013-02-20 10:11:00,36.0,20.0,-100.00,NW,311,19.0,31.0,52,-99.99,,,-99.99,268.000000,,2013-02-20 17:11:00,
2013-02-20 11:11:00,38.0,20.0,-100.00,NW,319,22.0,32.0,46,-99.99,,,0.00,409.209991,,2013-02-20 18:11:00,
2013-02-20 13:11:00,43.0,19.0,-100.00,NW,323,20.0,31.0,37,-99.99,,,0.00,617.830017,,2013-02-20 20:11:00,
2013-02-20 14:11:00,44.0,18.0,-100.00,NW,321,20.0,30.0,35,-99.99,,,0.00,585.400024,,2013-02-20 21:11:00,
2013-02-20 15:11:00,45.0,17.0,-100.00,NW,320,19.0,28.0,32,-99.99,,,0.00,551.700012,,2013-02-20 22:11:00,
2013-02-20 16:12:00,45.0,16.0,-100.00,NW,317,17.0,27.0,30,-99.99,,,0.00,465.929993,,2013-02-20 23:12:00,
2013-02-20 17:11:00,45.0,17.0,-100.00,NW,322,20.0,30.0,32,-99.99,,,0.00,407.820007,,2013-02-21 00:11:00,
2013-02-20 18:11:00,43.0,17.0,-100.00,NW,313,17.0,26.0,35,-99.99,,,0.00,154.690002,,2013-02-21 01:11:00,
2013-02-20 19:11:00,39.0,17.0,-100.00,NW,310,9.0,14.0,41,-99.99,,,0.00,14.880000,,2013-02-21 02:11:00,
2013-02-20 20:12:00,36.0,18.0,-100.00,WNW,297,9.0,13.0,46,-99.99,,,0.00,0.000000,,2013-02-21 03:12:00,
2013-02-20 21:11:00,34.0,18.0,-100.00,WSW,253,6.0,10.0,51,-99.99,,,0.00,0.000000,,2013-02-21 04:11:00,
2013-02-20 22:12:00,34.0,18.0,-100.00,West,277,8.0,13.0,51,-99.99,,,0.00,0.000000,,2013-02-21 05:12:00,
2013-02-20 23:11:00,34.0,18.0,-100.00,WNW,289,9.0,13.0,51,-99.99,,,0.00,0.000000,,2013-02-21 06:11:00,